Time;durP1;ratioP1;P1;durP2;ratioP2;P2;SDS_P1;SDS_P2;PMS_P1;PMS_P2;Temp;Humidity;BMP_temperature;BMP_pressure;BME280_temperature;BME280_humidity;BME280_pressure;Samples;Min_cycle;Max_cycle;Signal;HPM_P1;HPM_P2
2023/10/20 00:01:34;;;;;;;18.17;11.20;;;8.80;99.90;;;;;;5076375;28;20043;-77
2023/10/20 00:04:03;;;;;;;20.05;12.02;;;8.80;99.90;;;;;;5071640;28;20040;-78
2023/10/20 00:06:29;;;;;;;19.92;11.90;;;8.80;99.90;;;;;;5071426;28;20044;-78
2023/10/20 00:08:55;;;;;;;19.77;12.45;;;8.80;99.90;;;;;;5056423;28;20086;-77
2023/10/20 00:11:21;;;;;;;21.10;12.40;;;8.80;99.90;;;;;;5071741;28;20040;-77
2023/10/20 00:13:46;;;;;;;24.88;13.98;;;8.80;99.90;;;;;;5071000;28;20044;-77
2023/10/20 00:16:12;;;;;;;20.00;12.40;;;8.80;99.90;;;;;;5050090;28;20044;-77
2023/10/20 00:18:38;;;;;;;25.15;14.45;;;8.80;99.90;;;;;;5073598;28;20834;-77
2023/10/20 00:21:04;;;;;;;22.73;12.85;;;8.80;99.90;;;;;;5072886;28;20044;-78
2023/10/20 00:23:29;;;;;;;26.23;14.00;;;8.80;99.90;;;;;;5071743;28;20127;-78
2023/10/20 00:25:55;;;;;;;23.95;13.60;;;8.80;99.90;;;;;;5072183;28;20051;-78
2023/10/20 00:28:21;;;;;;;24.70;14.00;;;8.80;99.90;;;;;;5071583;28;20463;-78
2023/10/20 00:30:46;;;;;;;27.05;14.40;;;8.80;99.90;;;;;;5071859;28;20043;-78
2023/10/20 00:33:12;;;;;;;26.08;15.05;;;8.80;99.90;;;;;;5071618;28;20113;-77
2023/10/20 00:35:38;;;;;;;28.13;15.75;;;8.90;99.90;;;;;;5072120;28;20040;-78
2023/10/20 00:38:04;;;;;;;30.75;15.52;;;8.80;99.90;;;;;;5071383;28;20419;-78
2023/10/20 00:40:30;;;;;;;28.67;15.48;;;8.70;99.90;;;;;;5073765;28;20127;-77
2023/10/20 00:42:56;;;;;;;29.27;16.02;;;8.70;99.90;;;;;;5070456;28;20088;-77
2023/10/20 00:45:21;;;;;;;27.27;16.48;;;8.70;99.90;;;;;;5071199;28;20068;-77
2023/10/20 00:47:47;;;;;;;24.92;14.90;;;8.70;99.90;;;;;;5071588;28;20124;-78
2023/10/20 00:50:14;;;;;;;29.40;16.60;;;8.70;99.90;;;;;;5071746;28;20045;-77
2023/10/20 00:52:49;;;;;;;33.67;17.75;;;8.70;99.90;;;;;;5072535;28;20051;-78
2023/10/20 00:55:15;;;;;;;29.80;16.42;;;8.80;99.90;;;;;;5071198;28;20090;-78
2023/10/20 00:57:44;;;;;;;27.35;14.98;;;8.70;99.90;;;;;;5071893;28;20091;-78
2023/10/20 01:00:10;;;;;;;29.65;15.98;;;8.70;99.90;;;;;;5057466;28;20105;-78
2023/10/20 01:02:36;;;;;;;33.22;17.10;;;8.70;99.90;;;;;;5070275;28;20099;-77
2023/10/20 01:05:06;;;;;;;28.77;15.73;;;8.70;99.90;;;;;;5070793;28;20042;-76
2023/10/20 01:07:33;;;;;;;28.92;16.40;;;8.70;99.90;;;;;;5055164;28;20049;-76
2023/10/20 01:10:05;;;;;;;31.90;16.60;;;8.70;99.90;;;;;;5072425;28;20052;-78
2023/10/20 01:12:31;;;;;;;31.20;16.08;;;8.70;99.90;;;;;;5068357;28;20488;-78
2023/10/20 01:14:59;;;;;;;29.15;15.70;;;8.70;99.90;;;;;;5072098;28;20089;-78
2023/10/20 01:17:29;;;;;;;34.00;17.08;;;8.70;99.90;;;;;;5072806;28;20053;-78
2023/10/20 01:19:55;;;;;;;27.98;15.93;;;8.70;99.90;;;;;;5075703;28;20078;-78
2023/10/20 01:22:21;;;;;;;32.25;17.30;;;8.70;99.90;;;;;;5079140;28;20396;-77
2023/10/20 01:24:47;;;;;;;29.77;16.75;;;8.80;99.90;;;;;;5072364;28;20457;-77
2023/10/20 01:27:13;;;;;;;33.10;16.95;;;8.70;99.90;;;;;;5072202;28;20127;-78
2023/10/20 01:29:39;;;;;;;27.83;16.65;;;8.80;99.90;;;;;;5071806;28;20045;-78
2023/10/20 01:32:04;;;;;;;31.13;16.45;;;8.80;99.90;;;;;;5080413;28;20036;-78
2023/10/20 01:34:31;;;;;;;34.20;18.15;;;8.70;99.90;;;;;;5073267;28;20048;-78
2023/10/20 01:36:57;;;;;;;33.03;17.60;;;8.70;99.90;;;;;;5066851;28;20547;-78
2023/10/20 01:39:22;;;;;;;26.83;15.48;;;8.70;99.90;;;;;;5075931;28;20143;-77
2023/10/20 01:41:48;;;;;;;31.25;17.38;;;8.70;99.90;;;;;;5077631;28;20051;-78
2023/10/20 01:44:14;;;;;;;32.20;18.02;;;8.70;99.90;;;;;;5054257;28;20139;-78
2023/10/20 01:46:42;;;;;;;31.67;17.13;;;8.70;99.90;;;;;;5058326;28;20411;-79
2023/10/20 01:49:07;;;;;;;30.52;17.27;;;8.70;99.90;;;;;;5051698;28;20045;-78
2023/10/20 01:51:34;;;;;;;30.13;16.85;;;8.70;99.90;;;;;;5057217;28;20382;-77
2023/10/20 01:54:00;;;;;;;34.08;18.15;;;8.90;99.90;;;;;;5079800;28;20172;-77
2023/10/20 01:56:26;;;;;;;29.23;17.02;;;8.70;99.90;;;;;;5081887;28;20496;-78
2023/10/20 01:58:51;;;;;;;29.67;17.00;;;8.70;99.90;;;;;;5070604;28;20403;-79
2023/10/20 02:01:18;;;;;;;30.83;15.57;;;8.70;99.90;;;;;;5072623;28;20037;-78
2023/10/20 02:03:47;;;;;;;31.20;16.75;;;8.70;99.90;;;;;;5074801;28;20473;-78
2023/10/20 02:06:12;;;;;;;29.98;16.48;;;8.70;99.90;;;;;;5070820;28;20408;-78
2023/10/20 02:08:39;;;;;;;25.25;16.05;;;8.70;99.90;;;;;;5070165;28;20059;-78
2023/10/20 02:11:04;;;;;;;29.42;16.23;;;8.70;99.90;;;;;;5073530;28;20423;-76
2023/10/20 02:13:30;;;;;;;24.90;15.07;;;8.70;99.90;;;;;;5094955;28;20130;-78
2023/10/20 02:15:56;;;;;;;30.40;16.63;;;8.70;99.90;;;;;;5074732;28;20040;-78
2023/10/20 02:18:21;;;;;;;26.38;15.18;;;8.70;99.90;;;;;;5076926;28;20123;-77
2023/10/20 02:21:03;;;;;;;31.33;16.88;;;8.70;99.90;;;;;;5074417;28;20051;-78
2023/10/20 02:23:34;;;;;;;27.67;15.43;;;8.70;99.90;;;;;;5023098;28;20128;-78
2023/10/20 02:26:02;;;;;;;27.77;15.15;;;8.70;99.90;;;;;;5045061;28;20083;-77
2023/10/20 02:28:28;;;;;;;31.48;15.27;;;8.70;99.90;;;;;;5064685;28;20364;-78
2023/10/20 02:30:57;;;;;;;27.33;15.32;;;8.70;99.90;;;;;;5074123;28;20088;-79
2023/10/20 02:33:23;;;;;;;27.73;16.10;;;8.70;99.90;;;;;;5055951;28;20049;-78
2023/10/20 02:35:49;;;;;;;30.10;15.45;;;8.70;99.90;;;;;;5056444;28;20094;-79
2023/10/20 02:38:14;;;;;;;24.15;14.48;;;8.70;99.90;;;;;;5056865;28;20080;-78
2023/10/20 02:40:49;;;;;;;24.65;14.45;;;8.70;99.90;;;;;;5056698;28;20433;-78
2023/10/20 02:43:14;;;;;;;25.58;14.63;;;8.70;99.90;;;;;;5056462;28;20054;-78
2023/10/20 02:45:47;;;;;;;24.30;14.35;;;8.70;99.90;;;;;;5055566;28;20040;-77
2023/10/20 02:48:13;;;;;;;24.20;15.02;;;8.70;99.90;;;;;;5040997;28;20036;-78
2023/10/20 02:50:39;;;;;;;29.83;15.73;;;8.70;99.90;;;;;;5054181;28;20411;-79
2023/10/20 02:53:05;;;;;;;27.52;14.55;;;8.70;99.90;;;;;;5055717;28;20044;-78
2023/10/20 02:55:31;;;;;;;28.60;15.32;;;8.70;99.90;;;;;;5055418;28;20052;-78
2023/10/20 02:57:57;;;;;;;25.23;14.27;;;8.70;99.90;;;;;;5060410;28;20048;-77
2023/10/20 03:00:23;;;;;;;25.20;14.65;;;8.70;99.90;;;;;;5054297;28;20044;-78
2023/10/20 03:02:48;;;;;;;24.23;13.60;;;8.70;99.90;;;;;;5054531;28;20063;-80
2023/10/20 03:05:15;;;;;;;24.55;14.73;;;8.70;99.90;;;;;;5072592;28;20104;-78
2023/10/20 03:07:41;;;;;;;24.20;13.90;;;8.70;99.90;;;;;;5056667;28;20041;-78
2023/10/20 03:10:08;;;;;;;23.13;13.50;;;8.60;99.90;;;;;;5054398;28;20060;-77
2023/10/20 03:12:34;;;;;;;22.48;14.05;;;8.70;99.90;;;;;;5043008;28;20103;-77
2023/10/20 03:14:59;;;;;;;22.17;13.65;;;8.70;99.90;;;;;;5053680;28;20072;-79
2023/10/20 03:17:26;;;;;;;25.42;13.73;;;8.60;99.90;;;;;;5055311;28;20095;-78
2023/10/20 03:19:52;;;;;;;22.20;13.32;;;8.60;99.90;;;;;;5072944;28;20052;-77
2023/10/20 03:22:17;;;;;;;30.85;15.00;;;8.60;99.90;;;;;;5055998;28;20048;-77
2023/10/20 03:24:43;;;;;;;25.45;13.10;;;8.60;99.90;;;;;;5073920;28;20416;-77
2023/10/20 03:27:10;;;;;;;25.67;13.93;;;8.60;99.90;;;;;;5058795;28;20047;-77
2023/10/20 03:29:36;;;;;;;22.83;13.60;;;8.60;99.90;;;;;;5072519;28;20042;-77
2023/10/20 03:32:03;;;;;;;24.27;13.20;;;8.60;99.90;;;;;;5056195;28;20048;-78
2023/10/20 03:34:31;;;;;;;22.83;12.75;;;8.60;99.90;;;;;;5055031;28;20134;-77
2023/10/20 03:36:57;;;;;;;22.92;14.50;;;8.60;99.90;;;;;;5058676;28;20041;-77
2023/10/20 03:39:23;;;;;;;21.42;13.68;;;8.60;99.90;;;;;;5076055;28;20131;-76
2023/10/20 03:41:52;;;;;;;22.65;13.57;;;8.60;99.90;;;;;;5061790;28;20439;-78
2023/10/20 03:44:21;;;;;;;25.55;13.65;;;8.60;99.90;;;;;;5055953;28;20040;-76
2023/10/20 03:46:49;;;;;;;20.25;12.80;;;8.60;99.90;;;;;;5056148;28;20045;-76
2023/10/20 03:49:16;;;;;;;25.13;13.88;;;8.60;99.90;;;;;;5074787;28;20048;-77
2023/10/20 03:51:51;;;;;;;24.08;14.32;;;8.60;99.90;;;;;;5043141;28;20036;-76
2023/10/20 03:54:24;;;;;;;22.33;14.02;;;8.60;99.90;;;;;;5071823;28;20044;-77
2023/10/20 03:56:50;;;;;;;24.85;14.27;;;8.60;99.90;;;;;;5055615;28;20040;-76
2023/10/20 03:59:16;;;;;;;19.67;13.13;;;8.60;99.90;;;;;;5064825;28;20046;-75
2023/10/20 04:01:42;;;;;;;23.48;14.25;;;8.60;99.90;;;;;;5051196;28;20473;-77
2023/10/20 04:04:10;;;;;;;23.60;14.25;;;8.60;99.90;;;;;;5052781;28;20045;-77
2023/10/20 04:06:36;;;;;;;23.70;13.95;;;8.60;99.90;;;;;;5037475;28;20046;-77
2023/10/20 04:09:09;;;;;;;22.95;13.32;;;8.50;99.90;;;;;;5059237;28;20047;-76
2023/10/20 04:11:36;;;;;;;19.95;12.23;;;8.60;99.90;;;;;;5071221;28;20385;-78
2023/10/20 04:14:08;;;;;;;22.15;12.70;;;8.50;99.90;;;;;;5054927;28;20052;-76
2023/10/20 04:16:42;;;;;;;22.20;12.48;;;8.50;99.90;;;;;;5053965;28;20051;-77
2023/10/20 04:19:14;;;;;;;22.88;13.27;;;8.50;99.90;;;;;;5057289;28;20473;-78
2023/10/20 04:21:41;;;;;;;22.42;12.75;;;8.60;99.90;;;;;;5048727;28;20097;-77
2023/10/20 04:24:10;;;;;;;18.17;12.23;;;8.50;99.90;;;;;;5052334;28;20048;-78
2023/10/20 04:26:43;;;;;;;19.75;12.13;;;8.50;99.90;;;;;;5052974;28;20511;-77
2023/10/20 04:58:03;;;;;;;;;;;8.50;99.90;;;;;;5052255;28;20591;-78
2023/10/20 05:00:33;;;;;;;16.48;10.52;;;8.50;99.90;;;;;;5058182;28;19924;-77
2023/10/20 05:10:37;;;;;;;16.40;9.20;;;8.50;99.90;;;;;;5054033;28;20140;-78
2023/10/20 05:13:02;;;;;;;16.35;9.73;;;8.40;99.90;;;;;;5057534;28;20365;-77
2023/10/20 05:15:32;;;;;;;15.23;10.23;;;8.50;99.90;;;;;;5073145;28;20044;-80
2023/10/20 05:17:58;;;;;;;14.98;9.18;;;8.50;99.90;;;;;;5044999;28;20064;-78
2023/10/20 05:20:24;;;;;;;17.90;10.73;;;8.50;99.90;;;;;;5095268;28;20068;-77
2023/10/20 05:22:50;;;;;;;16.10;8.90;;;8.50;99.90;;;;;;5058287;28;20412;-77
2023/10/20 05:25:16;;;;;;;14.15;9.25;;;8.50;99.90;;;;;;5072910;28;20052;-75
2023/10/20 05:27:45;;;;;;;14.95;8.48;;;8.50;99.90;;;;;;5037614;28;20056;-79
2023/10/20 05:30:11;;;;;;;13.05;7.93;;;8.50;99.90;;;;;;5036383;28;20045;-76
2023/10/20 05:32:39;;;;;;;13.85;8.40;;;8.50;99.90;;;;;;5057257;28;20049;-76
2023/10/20 05:35:08;;;;;;;14.45;7.78;;;8.50;99.90;;;;;;5067231;28;20047;-77
2023/10/20 05:37:34;;;;;;;13.48;8.23;;;8.50;99.90;;;;;;5065302;28;20040;-77
2023/10/20 05:40:00;;;;;;;12.65;7.85;;;8.50;99.90;;;;;;5070117;28;20044;-77
2023/10/20 05:42:26;;;;;;;11.40;8.00;;;8.50;99.90;;;;;;5060560;28;20094;-76
2023/10/20 05:45:09;;;;;;;10.38;7.43;;;8.50;99.90;;;;;;5049476;28;20049;-77
2023/10/20 05:47:36;;;;;;;11.45;7.47;;;8.50;99.90;;;;;;5056270;28;20478;-76
2023/10/20 05:50:02;;;;;;;13.43;7.75;;;8.50;99.90;;;;;;5075458;28;20377;-76
2023/10/20 05:52:28;;;;;;;10.65;7.32;;;8.40;99.90;;;;;;5054384;28;20522;-79
2023/10/20 05:54:56;;;;;;;12.40;7.47;;;8.50;99.90;;;;;;5049700;28;20098;-78
2023/10/20 05:57:22;;;;;;;12.90;8.25;;;8.50;99.90;;;;;;5059460;28;20044;-79
2023/10/20 05:59:50;;;;;;;10.35;6.30;;;8.50;99.90;;;;;;5075415;28;20044;-79
2023/10/20 06:02:16;;;;;;;14.02;8.00;;;8.50;99.90;;;;;;5062286;28;20053;-79
2023/10/20 06:04:41;;;;;;;14.63;7.13;;;8.40;99.90;;;;;;5057450;28;20048;-81
2023/10/20 06:07:07;;;;;;;10.98;7.13;;;8.40;99.90;;;;;;5057601;28;20094;-80
2023/10/20 06:09:33;;;;;;;11.02;6.55;;;8.40;99.90;;;;;;5056626;28;20041;-76
2023/10/20 06:11:59;;;;;;;9.77;6.28;;;8.40;99.90;;;;;;5070278;28;20458;-77
2023/10/20 06:14:25;;;;;;;9.23;5.82;;;8.40;99.90;;;;;;5063951;28;20453;-76
2023/10/20 06:16:52;;;;;;;9.88;6.47;;;8.40;99.90;;;;;;5067228;28;20127;-81
2023/10/20 06:19:19;;;;;;;10.90;5.95;;;8.40;99.90;;;;;;5062488;28;20053;-79
2023/10/20 06:21:46;;;;;;;9.63;5.97;;;8.40;99.90;;;;;;5060693;28;20055;-78
2023/10/20 06:24:13;;;;;;;10.45;6.28;;;8.50;99.90;;;;;;5057452;28;20048;-79
2023/10/20 06:26:42;;;;;;;10.95;6.50;;;8.40;99.90;;;;;;5041517;28;20056;-79
2023/10/20 06:34:31;;;;;;;;;;;8.40;99.90;;;;;;5052423;28;20052;-78
2023/10/20 06:37:22;;;;;;;8.88;5.68;;;8.40;99.90;;;;;;5066346;28;19927;-78
2023/10/20 06:39:44;;;;;;;11.30;5.93;;;8.40;99.90;;;;;;5055842;28;20133;-77
2023/10/20 06:42:10;;;;;;;11.80;5.75;;;8.50;99.90;;;;;;5056769;28;20140;-76
2023/10/20 06:44:36;;;;;;;8.18;5.07;;;8.40;99.90;;;;;;5053829;28;20052;-80
2023/10/20 06:47:01;;;;;;;9.75;5.28;;;8.50;99.90;;;;;;5051678;28;20498;-80
2023/10/20 06:49:28;;;;;;;9.57;5.57;;;8.40;99.90;;;;;;5053645;28;20411;-77
2023/10/20 06:51:54;;;;;;;9.10;4.88;;;8.40;99.90;;;;;;5049868;28;20091;-75
2023/10/20 06:54:20;;;;;;;9.55;4.75;;;8.50;99.90;;;;;;5053812;28;20519;-76
2023/10/20 06:56:46;;;;;;;9.48;4.93;;;8.50;99.90;;;;;;5053381;28;20040;-76
2023/10/20 06:59:14;;;;;;;8.77;4.15;;;8.40;99.90;;;;;;5037486;28;20403;-76
2023/10/20 07:01:40;;;;;;;9.23;4.13;;;8.60;99.90;;;;;;5072276;28;20233;-76
2023/10/20 07:04:08;;;;;;;7.43;3.90;;;8.50;99.90;;;;;;5054334;28;20044;-76
2023/10/20 07:06:36;;;;;;;8.45;4.22;;;8.50;99.90;;;;;;5039562;28;20048;-76
2023/10/20 07:09:11;;;;;;;7.15;3.60;;;8.40;99.90;;;;;;5039640;28;20059;-77
2023/10/20 07:11:38;;;;;;;6.50;3.20;;;8.50;99.90;;;;;;5056467;28;20107;-76
2023/10/20 07:14:05;;;;;;;6.05;3.22;;;8.90;99.90;;;;;;5055569;28;20420;-74
2023/10/20 07:16:32;;;;;;;7.18;3.10;;;8.40;99.90;;;;;;5056096;28;20051;-77
2023/10/20 07:18:57;;;;;;;6.50;3.00;;;8.40;99.90;;;;;;5061896;28;20044;-76
2023/10/20 07:24:27;;;;;;;6.40;2.63;;;8.40;99.90;;;;;;5109345;27;20419;-78
2023/10/20 07:26:54;;;;;;;5.90;3.10;;;8.40;99.90;;;;;;5109145;28;20055;-77
2023/10/20 07:29:21;;;;;;;4.75;2.58;;;8.40;99.90;;;;;;5107689;28;20503;-77
2023/10/20 07:31:47;;;;;;;6.13;2.78;;;8.40;99.90;;;;;;5106134;28;20046;-77
2023/10/20 07:34:16;;;;;;;5.32;2.70;;;8.40;99.90;;;;;;5107963;28;20040;-77
2023/10/20 07:36:42;;;;;;;4.05;2.40;;;8.40;99.90;;;;;;5108356;28;20581;-78
2023/10/20 07:39:09;;;;;;;5.75;2.80;;;8.70;99.90;;;;;;5091516;28;20047;-78
2023/10/20 07:41:37;;;;;;;7.03;3.30;;;8.70;99.90;;;;;;5108269;28;20104;-77
2023/10/20 07:44:03;;;;;;;5.95;2.95;;;8.40;99.90;;;;;;5106237;28;20036;-77
2023/10/20 07:46:31;;;;;;;6.15;3.17;;;8.40;99.90;;;;;;5100985;28;20096;-77
2023/10/20 07:48:57;;;;;;;6.68;3.03;;;8.40;99.90;;;;;;5106582;28;20043;-76
2023/10/20 07:51:24;;;;;;;6.50;2.85;;;8.30;99.90;;;;;;5108944;28;20092;-77
2023/10/20 07:53:49;;;;;;;5.90;2.90;;;8.30;99.90;;;;;;5107441;28;20048;-77
2023/10/20 07:56:15;;;;;;;7.43;2.97;;;8.30;99.90;;;;;;5108196;28;20051;-76
2023/10/20 07:58:43;;;;;;;5.80;2.60;;;8.30;99.90;;;;;;5103752;28;20040;-77
2023/10/20 08:01:09;;;;;;;4.93;2.83;;;8.30;99.90;;;;;;5108117;28;20048;-76
2023/10/20 08:03:35;;;;;;;5.80;3.03;;;8.30;99.90;;;;;;5103256;28;20074;-75
2023/10/20 08:06:02;;;;;;;6.15;2.80;;;8.30;99.90;;;;;;5102332;28;20043;-76
2023/10/20 08:08:29;;;;;;;5.68;2.70;;;8.40;99.90;;;;;;5102138;28;20041;-77
2023/10/20 08:10:55;;;;;;;4.60;2.53;;;8.30;99.90;;;;;;5074709;28;20052;-77
2023/10/20 08:13:21;;;;;;;5.65;2.60;;;8.20;99.90;;;;;;5102133;28;20047;-76
2023/10/20 08:15:47;;;;;;;6.03;2.47;;;8.20;99.90;;;;;;5105533;28;20040;-76
2023/10/20 08:18:13;;;;;;;5.75;2.50;;;8.20;99.90;;;;;;5107437;28;20441;-76
2023/10/20 08:20:39;;;;;;;5.75;2.78;;;8.30;99.90;;;;;;5106975;28;20043;-77
2023/10/20 08:23:07;;;;;;;7.47;2.80;;;8.20;99.90;;;;;;5106368;28;20703;-77
2023/10/20 08:25:36;;;;;;;6.90;2.55;;;8.20;99.90;;;;;;5107440;28;20105;-76
2023/10/20 08:28:02;;;;;;;6.22;2.67;;;8.20;99.90;;;;;;5090282;28;20047;-76
2023/10/20 08:30:28;;;;;;;5.20;2.50;;;8.20;99.90;;;;;;5106628;28;20036;-77
2023/10/20 08:32:56;;;;;;;4.97;2.33;;;8.20;99.90;;;;;;5107174;28;20376;-76
2023/10/20 08:35:23;;;;;;;7.50;2.58;;;8.20;99.90;;;;;;5077513;28;20044;-77
2023/10/20 08:37:48;;;;;;;5.88;2.70;;;8.20;99.90;;;;;;5092580;28;20054;-77
2023/10/20 08:40:15;;;;;;;5.10;2.63;;;8.20;99.90;;;;;;5093364;28;20134;-77
2023/10/20 08:42:41;;;;;;;4.35;2.35;;;8.20;99.90;;;;;;5087493;28;20048;-77
2023/10/20 08:45:12;;;;;;;4.53;2.50;;;8.20;99.90;;;;;;5093315;28;20055;-77
2023/10/20 08:47:41;;;;;;;4.78;2.80;;;8.20;99.90;;;;;;5075862;28;20048;-76
2023/10/20 08:50:07;;;;;;;5.45;2.47;;;8.20;99.90;;;;;;5092899;28;20055;-76
2023/10/20 08:52:34;;;;;;;7.03;2.50;;;8.20;99.90;;;;;;5092866;28;20092;-77
2023/10/20 08:55:00;;;;;;;4.70;2.53;;;8.10;99.90;;;;;;5093988;28;20105;-78
2023/10/20 08:57:27;;;;;;;5.18;1.83;;;8.10;99.90;;;;;;5092887;28;20483;-77
2023/10/20 08:59:54;;;;;;;4.60;2.35;;;8.10;99.90;;;;;;5076341;28;20402;-77
2023/10/20 09:02:21;;;;;;;4.15;2.10;;;8.10;99.90;;;;;;5076189;28;20056;-77
2023/10/20 09:04:54;;;;;;;6.00;2.17;;;8.10;99.90;;;;;;5090883;28;20487;-77
2023/10/20 09:07:23;;;;;;;6.18;2.35;;;8.20;99.90;;;;;;5092048;28;20051;-77
2023/10/20 09:09:51;;;;;;;4.55;1.98;;;8.10;99.90;;;;;;5093428;28;20044;-77
2023/10/20 09:12:17;;;;;;;3.88;1.90;;;8.20;99.90;;;;;;5091271;28;20127;-77
2023/10/20 09:14:43;;;;;;;5.03;2.13;;;8.10;99.90;;;;;;5093156;28;20403;-77
2023/10/20 09:17:23;;;;;;;4.28;1.92;;;8.10;99.90;;;;;;5093136;28;20044;-77
2023/10/20 09:19:49;;;;;;;3.90;1.70;;;8.10;99.90;;;;;;5083975;28;20044;-77
2023/10/20 09:22:14;;;;;;;7.90;1.92;;;8.10;99.90;;;;;;5094084;28;20059;-77
2023/10/20 09:24:41;;;;;;;3.88;1.67;;;8.10;99.90;;;;;;5093011;28;20055;-78
2023/10/20 09:27:08;;;;;;;2.63;1.50;;;8.00;99.90;;;;;;5093065;28;20040;-77
2023/10/20 09:29:37;;;;;;;4.22;1.95;;;8.10;99.90;;;;;;5077390;28;20037;-77
2023/10/20 09:32:04;;;;;;;4.07;1.65;;;8.10;99.90;;;;;;5084630;28;20114;-77
2023/10/20 09:34:30;;;;;;;4.10;1.80;;;8.00;99.90;;;;;;5070519;28;20095;-77
2023/10/20 09:36:56;;;;;;;3.67;1.60;;;8.00;99.90;;;;;;5085539;28;20036;-77
2023/10/20 09:39:37;;;;;;;3.58;1.50;;;8.10;99.90;;;;;;5090738;28;20492;-77
2023/10/20 09:42:05;;;;;;;3.55;1.90;;;8.00;99.90;;;;;;5075780;28;20494;-77
2023/10/20 09:44:41;;;;;;;3.53;1.70;;;8.00;99.90;;;;;;5087940;28;20053;-79
2023/10/20 09:47:26;;;;;;;3.60;1.65;;;8.00;99.90;;;;;;5092641;28;20051;-77
2023/10/20 09:49:54;;;;;;;3.90;1.40;;;8.00;99.90;;;;;;5092117;28;20454;-78
2023/10/20 09:52:20;;;;;;;3.55;1.50;;;8.00;99.90;;;;;;5092124;28;20105;-78
2023/10/20 09:54:50;;;;;;;3.17;1.27;;;8.10;99.90;;;;;;5092314;28;20040;-77
2023/10/20 09:57:19;;;;;;;2.40;1.30;;;8.00;99.90;;;;;;5090314;28;20043;-76
2023/10/20 09:59:53;;;;;;;3.35;1.10;;;8.00;99.90;;;;;;5085858;28;20055;-76
2023/10/20 10:02:29;;;;;;;5.57;1.30;;;8.00;99.90;;;;;;5091245;28;20159;-77
2023/10/20 10:04:56;;;;;;;2.40;1.00;;;8.00;99.90;;;;;;5090026;28;20040;-77
2023/10/20 10:07:32;;;;;;;4.50;1.10;;;8.00;99.90;;;;;;5092072;28;20039;-77
2023/10/20 10:09:58;;;;;;;2.80;1.13;;;8.10;99.90;;;;;;5091162;28;20039;-78
2023/10/20 10:12:27;;;;;;;3.75;1.42;;;8.20;99.90;;;;;;5090242;28;20048;-77
2023/10/20 10:15:07;;;;;;;4.07;1.35;;;8.00;99.90;;;;;;5090854;28;20046;-76
2023/10/20 10:17:46;;;;;;;4.07;1.25;;;8.00;99.90;;;;;;5091734;28;20097;-77
2023/10/20 10:20:26;;;;;;;4.03;1.13;;;8.00;99.90;;;;;;5091242;28;20105;-76
2023/10/20 10:23:04;;;;;;;3.33;1.17;;;8.00;99.90;;;;;;5090973;28;20059;-77
2023/10/20 10:25:39;;;;;;;2.58;0.93;;;8.00;99.90;;;;;;5090678;28;20510;-76
2023/10/20 10:28:14;;;;;;;2.83;0.80;;;8.00;99.90;;;;;;5091599;28;20051;-77
2023/10/20 10:30:41;;;;;;;4.35;0.93;;;8.00;99.90;;;;;;5090287;28;20044;-76
2023/10/20 10:33:08;;;;;;;2.45;0.80;;;7.90;99.90;;;;;;5090407;28;20040;-77
2023/10/20 10:35:36;;;;;;;1.55;0.70;;;7.90;99.90;;;;;;5090177;28;20048;-77
2023/10/20 10:38:03;;;;;;;2.72;0.93;;;7.90;99.90;;;;;;5090835;28;20407;-77
2023/10/20 10:40:29;;;;;;;3.53;0.80;;;8.00;99.90;;;;;;5075259;28;20372;-77
2023/10/20 10:42:55;;;;;;;3.47;0.75;;;7.90;99.90;;;;;;5091264;28;20046;-76
2023/10/20 10:45:31;;;;;;;2.25;0.70;;;7.90;99.90;;;;;;5090687;28;20371;-77
2023/10/20 10:48:11;;;;;;;1.85;0.60;;;7.90;99.90;;;;;;5090698;28;20036;-77
2023/10/20 10:50:39;;;;;;;1.48;0.60;;;7.90;99.90;;;;;;5071704;28;20052;-77
2023/10/20 10:53:04;;;;;;;1.63;0.68;;;8.00;99.90;;;;;;5086323;28;20108;-77
2023/10/20 10:55:31;;;;;;;3.10;0.60;;;7.90;99.90;;;;;;5091024;28;20083;-76
2023/10/20 10:58:00;;;;;;;2.03;0.50;;;7.90;99.90;;;;;;5090940;28;20047;-77
2023/10/20 11:00:27;;;;;;;5.68;0.65;;;7.80;99.90;;;;;;5089766;28;20047;-79
2023/10/20 11:02:55;;;;;;;1.00;0.52;;;7.90;99.90;;;;;;5088859;28;20076;-77
2023/10/20 11:05:21;;;;;;;3.78;0.82;;;7.80;99.90;;;;;;5088434;28;20507;-76
2023/10/20 11:08:10;;;;;;;2.03;0.50;;;7.80;99.90;;;;;;5086075;28;20145;-76
2023/10/20 11:10:37;;;;;;;1.98;0.60;;;7.80;99.90;;;;;;5105642;28;20062;-77
2023/10/20 11:13:10;;;;;;;2.00;0.43;;;7.80;99.90;;;;;;5087128;28;20046;-76
2023/10/20 11:15:37;;;;;;;0.95;0.50;;;7.80;99.90;;;;;;5086583;28;20044;-76
2023/10/20 11:18:04;;;;;;;1.70;0.50;;;7.80;99.90;;;;;;5080827;28;20045;-75
2023/10/20 11:20:38;;;;;;;1.23;0.50;;;7.80;99.90;;;;;;5081884;28;20048;-76
2023/10/20 11:23:07;;;;;;;1.08;0.43;;;7.80;99.90;;;;;;5088245;28;20050;-76
2023/10/20 11:25:34;;;;;;;3.38;0.60;;;7.80;99.90;;;;;;5089250;28;20073;-76
2023/10/20 11:28:02;;;;;;;2.28;0.40;;;7.80;99.90;;;;;;5089488;28;20044;-76
2023/10/20 11:30:31;;;;;;;1.20;0.50;;;7.80;99.90;;;;;;5084007;28;20095;-76
2023/10/20 11:32:58;;;;;;;1.88;0.60;;;7.80;99.90;;;;;;5087759;28;20518;-76
2023/10/20 11:35:24;;;;;;;1.80;0.60;;;8.00;99.90;;;;;;5081901;28;20165;-76
2023/10/20 11:37:54;;;;;;;2.10;0.40;;;7.80;99.90;;;;;;5077618;28;20141;-77
2023/10/20 11:40:21;;;;;;;2.03;0.60;;;7.80;99.90;;;;;;5064633;28;20044;-76
2023/10/20 11:42:48;;;;;;;2.55;0.70;;;7.80;99.90;;;;;;5087710;28;20044;-77
2023/10/20 11:45:14;;;;;;;1.52;0.63;;;7.80;99.90;;;;;;5090488;28;20119;-76
2023/10/20 11:47:40;;;;;;;1.45;0.50;;;7.80;99.90;;;;;;5089555;28;20736;-77
2023/10/20 11:50:18;;;;;;;2.42;0.57;;;7.80;99.90;;;;;;5089757;28;20044;-77
2023/10/20 11:52:45;;;;;;;1.13;0.47;;;7.90;99.90;;;;;;5090025;28;20044;-77
2023/10/20 11:55:11;;;;;;;1.13;0.50;;;7.90;99.90;;;;;;5069780;28;20143;-76
2023/10/20 11:57:38;;;;;;;2.03;0.55;;;7.90;99.90;;;;;;5088306;28;20044;-77
2023/10/20 12:00:09;;;;;;;1.42;0.50;;;7.90;99.90;;;;;;5089945;28;20040;-76
2023/10/20 12:02:35;;;;;;;1.02;0.47;;;7.90;99.90;;;;;;5089382;28;20052;-77
2023/10/20 12:05:00;;;;;;;2.78;0.50;;;8.00;99.90;;;;;;5089576;28;20048;-77
2023/10/20 12:07:27;;;;;;;2.70;0.50;;;7.90;99.90;;;;;;5089800;28;20044;-77
2023/10/20 12:09:53;;;;;;;2.15;0.50;;;7.90;99.90;;;;;;5090785;28;20115;-79
2023/10/20 12:12:19;;;;;;;1.98;0.50;;;7.80;99.90;;;;;;5090053;28;20105;-77
2023/10/20 12:14:46;;;;;;;3.20;0.38;;;7.90;99.90;;;;;;5086596;28;20048;-76
2023/10/20 12:17:12;;;;;;;2.92;0.50;;;7.90;99.90;;;;;;5073288;28;20070;-77
2023/10/20 12:19:41;;;;;;;1.40;0.55;;;7.80;99.90;;;;;;5081319;28;20125;-77
2023/10/20 12:22:08;;;;;;;3.00;0.57;;;7.80;99.90;;;;;;5092249;28;20119;-76
2023/10/20 12:24:35;;;;;;;1.85;0.40;;;7.80;99.90;;;;;;5095287;28;20499;-78
2023/10/20 12:27:01;;;;;;;2.45;0.50;;;7.80;99.90;;;;;;5089606;28;20071;-77
2023/10/20 12:29:27;;;;;;;1.63;0.40;;;7.90;99.90;;;;;;5105641;28;20052;-77
2023/10/20 12:31:52;;;;;;;1.77;0.43;;;7.80;99.90;;;;;;5063338;28;20092;-76
2023/10/20 12:34:19;;;;;;;2.60;0.60;;;7.90;99.90;;;;;;5065840;28;20044;-76
2023/10/20 12:36:45;;;;;;;1.70;0.52;;;7.90;99.90;;;;;;5079702;28;20086;-75
2023/10/20 12:39:18;;;;;;;1.23;0.50;;;7.80;99.90;;;;;;5083853;28;20415;-76
2023/10/20 12:41:50;;;;;;;1.25;0.40;;;7.80;99.90;;;;;;5086157;28;20079;-76
2023/10/20 12:44:19;;;;;;;2.35;0.40;;;7.80;99.90;;;;;;5085109;28;20056;-76
2023/10/20 12:46:45;;;;;;;1.27;0.40;;;7.80;99.90;;;;;;5086146;28;20040;-76
2023/10/20 12:49:11;;;;;;;3.90;0.70;;;7.80;99.90;;;;;;5067241;28;20044;-76
2023/10/20 12:51:40;;;;;;;1.23;0.40;;;7.80;99.90;;;;;;5069239;28;20047;-76
2023/10/20 12:54:05;;;;;;;3.78;0.47;;;7.80;99.90;;;;;;5093182;28;20048;-76
2023/10/20 12:56:31;;;;;;;0.80;0.38;;;8.00;99.90;;;;;;5088864;28;20413;-76
2023/10/20 12:58:57;;;;;;;1.13;0.45;;;7.80;99.90;;;;;;5084713;28;20479;-76
2023/10/20 13:01:22;;;;;;;0.90;0.30;;;7.80;99.90;;;;;;5084880;28;20052;-76
2023/10/20 13:03:48;;;;;;;2.53;0.32;;;7.80;99.90;;;;;;5075697;28;20079;-77
2023/10/20 13:06:15;;;;;;;0.85;0.43;;;7.80;99.90;;;;;;5086501;28;20052;-76
2023/10/20 13:08:43;;;;;;;1.70;0.50;;;7.80;99.90;;;;;;5095107;28;20044;-76
2023/10/20 13:11:10;;;;;;;1.40;0.40;;;7.80;99.90;;;;;;5111395;28;20448;-76
2023/10/20 13:13:35;;;;;;;1.13;0.60;;;7.80;99.90;;;;;;5094997;28;20083;-76
2023/10/20 13:16:02;;;;;;;0.70;0.38;;;7.90;99.90;;;;;;5091101;28;20083;-76
2023/10/20 13:18:28;;;;;;;2.08;0.50;;;7.80;99.90;;;;;;5075507;28;20048;-76
2023/10/20 13:20:54;;;;;;;0.70;0.38;;;7.80;99.90;;;;;;5090516;28;20076;-75
2023/10/20 13:23:20;;;;;;;1.38;0.55;;;7.80;99.90;;;;;;5070310;28;20443;-76
2023/10/20 13:25:46;;;;;;;0.90;0.50;;;7.80;99.90;;;;;;5091987;28;20090;-76
2023/10/20 13:28:11;;;;;;;1.60;0.60;;;7.80;99.90;;;;;;5091651;28;20048;-76
2023/10/20 13:30:38;;;;;;;3.58;0.40;;;7.80;99.90;;;;;;5092411;28;20149;-76
2023/10/20 13:33:04;;;;;;;0.93;0.50;;;7.80;99.90;;;;;;5091441;28;20044;-76
2023/10/20 13:35:35;;;;;;;1.23;0.38;;;7.70;99.90;;;;;;5091328;28;20048;-76
2023/10/20 13:38:02;;;;;;;1.52;0.50;;;7.70;99.90;;;;;;5092166;28;20051;-75